sensor_id;sensor_type;location;lat;lon;timestamp;pressure;altitude;pressure_sealevel;temperature;humidity
4085;BME280;2057;50.858;6.572;2023-04-06T00:00:57;100606.41;;;3.28;84.77
4085;BME280;2057;50.858;6.572;2023-04-06T00:03:22;100596.16;;;2.94;85.31
4085;BME280;2057;50.858;6.572;2023-04-06T00:05:48;100593.81;;;2.85;86.66
4085;BME280;2057;50.858;6.572;2023-04-06T00:08:16;100589.91;;;2.89;87.15
4085;BME280;2057;50.858;6.572;2023-04-06T00:10:41;100592.66;;;2.92;85.92
4085;BME280;2057;50.858;6.572;2023-04-06T00:13:07;100600.28;;;2.42;87.60
4085;BME280;2057;50.858;6.572;2023-04-06T00:15:33;100599.91;;;2.47;88.35
4085;BME280;2057;50.858;6.572;2023-04-06T00:17:58;100593.59;;;2.11;89.65
4085;BME280;2057;50.858;6.572;2023-04-06T00:20:24;100591.47;;;1.86;90.68
4085;BME280;2057;50.858;6.572;2023-04-06T00:22:49;100590.94;;;1.99;93.15
4085;BME280;2057;50.858;6.572;2023-04-06T00:25:15;100587.53;;;2.49;90.60
4085;BME280;2057;50.858;6.572;2023-04-06T00:27:40;100577.81;;;2.12;89.65
4085;BME280;2057;50.858;6.572;2023-04-06T00:30:09;100576.44;;;2.16;89.33
4085;BME280;2057;50.858;6.572;2023-04-06T00:32:35;100574.56;;;2.24;88.99
4085;BME280;2057;50.858;6.572;2023-04-06T00:35:04;100576.59;;;2.48;88.58
4085;BME280;2057;50.858;6.572;2023-04-06T00:37:31;100569.16;;;2.19;89.14
4085;BME280;2057;50.858;6.572;2023-04-06T00:39:56;100571.81;;;2.31;87.54
4085;BME280;2057;50.858;6.572;2023-04-06T00:42:22;100564.19;;;2.29;88.41
4085;BME280;2057;50.858;6.572;2023-04-06T00:44:58;100561.91;;;2.12;89.30
4085;BME280;2057;50.858;6.572;2023-04-06T00:47:24;100553.38;;;2.10;89.67
4085;BME280;2057;50.858;6.572;2023-04-06T00:49:50;100560.31;;;2.33;89.46
4085;BME280;2057;50.858;6.572;2023-04-06T00:52:16;100558.53;;;2.11;87.92
4085;BME280;2057;50.858;6.572;2023-04-06T00:54:42;100552.78;;;2.23;89.62
4085;BME280;2057;50.858;6.572;2023-04-06T00:57:07;100549.41;;;2.22;89.42
4085;BME280;2057;50.858;6.572;2023-04-06T00:59:33;100547.66;;;2.31;89.66
4085;BME280;2057;50.858;6.572;2023-04-06T01:01:58;100548.19;;;2.48;89.64
4085;BME280;2057;50.858;6.572;2023-04-06T01:04:24;100549.78;;;2.47;88.61
4085;BME280;2057;50.858;6.572;2023-04-06T01:06:50;100544.66;;;2.25;88.37
4085;BME280;2057;50.858;6.572;2023-04-06T01:09:16;100547.03;;;2.44;88.47
4085;BME280;2057;50.858;6.572;2023-04-06T01:11:41;100538.50;;;2.22;89.22
4085;BME280;2057;50.858;6.572;2023-04-06T01:14:10;100535.38;;;2.24;89.26
4085;BME280;2057;50.858;6.572;2023-04-06T01:16:36;100536.91;;;2.32;89.63
4085;BME280;2057;50.858;6.572;2023-04-06T01:19:07;100536.00;;;2.32;89.12
4085;BME280;2057;50.858;6.572;2023-04-06T01:21:33;100525.72;;;2.39;88.30
4085;BME280;2057;50.858;6.572;2023-04-06T01:23:59;100530.63;;;2.38;88.88
4085;BME280;2057;50.858;6.572;2023-04-06T01:26:24;100522.34;;;2.28;88.04
4085;BME280;2057;50.858;6.572;2023-04-06T01:28:52;100519.72;;;2.16;89.78
4085;BME280;2057;50.858;6.572;2023-04-06T01:31:17;100515.44;;;1.95;90.79
4085;BME280;2057;50.858;6.572;2023-04-06T01:33:43;100507.31;;;2.08;90.20
4085;BME280;2057;50.858;6.572;2023-04-06T01:36:11;100515.56;;;2.07;91.07
4085;BME280;2057;50.858;6.572;2023-04-06T01:38:36;100511.34;;;2.16;90.40
4085;BME280;2057;50.858;6.572;2023-04-06T01:41:02;100506.94;;;2.13;90.13
4085;BME280;2057;50.858;6.572;2023-04-06T01:43:27;100503.94;;;2.07;90.41
4085;BME280;2057;50.858;6.572;2023-04-06T01:45:52;100498.66;;;2.04;90.61
4085;BME280;2057;50.858;6.572;2023-04-06T01:48:18;100509.69;;;2.06;90.98
4085;BME280;2057;50.858;6.572;2023-04-06T01:50:43;100505.66;;;1.98;91.39
4085;BME280;2057;50.858;6.572;2023-04-06T01:53:09;100502.38;;;1.88;91.67
4085;BME280;2057;50.858;6.572;2023-04-06T01:55:34;100503.31;;;1.99;91.94
4085;BME280;2057;50.858;6.572;2023-04-06T01:58:00;100499.53;;;1.94;91.29
4085;BME280;2057;50.858;6.572;2023-04-06T02:00:25;100488.63;;;1.83;92.11
4085;BME280;2057;50.858;6.572;2023-04-06T02:02:50;100484.63;;;1.96;92.55
4085;BME280;2057;50.858;6.572;2023-04-06T02:05:16;100492.16;;;2.06;91.51
4085;BME280;2057;50.858;6.572;2023-04-06T02:07:41;100493.13;;;1.98;90.08
4085;BME280;2057;50.858;6.572;2023-04-06T02:10:12;100492.41;;;1.99;90.87
4085;BME280;2057;50.858;6.572;2023-04-06T02:12:38;100487.38;;;1.99;91.14
4085;BME280;2057;50.858;6.572;2023-04-06T02:15:03;100489.16;;;2.10;89.98
4085;BME280;2057;50.858;6.572;2023-04-06T02:17:29;100487.78;;;2.14;89.50
4085;BME280;2057;50.858;6.572;2023-04-06T02:19:54;100486.41;;;2.07;90.74
4085;BME280;2057;50.858;6.572;2023-04-06T02:22:19;100482.28;;;2.08;90.91
4085;BME280;2057;50.858;6.572;2023-04-06T02:24:45;100483.13;;;1.98;91.61
4085;BME280;2057;50.858;6.572;2023-04-06T02:27:11;100490.03;;;1.90;90.55
4085;BME280;2057;50.858;6.572;2023-04-06T02:29:37;100483.38;;;1.91;90.62
4085;BME280;2057;50.858;6.572;2023-04-06T02:32:02;100478.47;;;1.92;91.16
4085;BME280;2057;50.858;6.572;2023-04-06T02:34:31;100482.88;;;1.84;91.56
4085;BME280;2057;50.858;6.572;2023-04-06T02:36:56;100479.63;;;1.85;91.46
4085;BME280;2057;50.858;6.572;2023-04-06T02:39:21;100483.09;;;1.87;90.75
4085;BME280;2057;50.858;6.572;2023-04-06T02:41:47;100476.09;;;1.83;89.88
4085;BME280;2057;50.858;6.572;2023-04-06T02:44:13;100479.97;;;1.80;89.41
4085;BME280;2057;50.858;6.572;2023-04-06T02:46:38;100475.72;;;1.79;90.83
4085;BME280;2057;50.858;6.572;2023-04-06T02:49:04;100482.59;;;1.81;90.90
4085;BME280;2057;50.858;6.572;2023-04-06T02:51:29;100484.22;;;1.91;90.31
4085;BME280;2057;50.858;6.572;2023-04-06T02:53:54;100483.34;;;1.80;89.90
4085;BME280;2057;50.858;6.572;2023-04-06T02:56:20;100476.03;;;1.63;91.62
4085;BME280;2057;50.858;6.572;2023-04-06T02:58:47;100474.16;;;1.60;91.15
4085;BME280;2057;50.858;6.572;2023-04-06T03:01:15;100470.75;;;1.49;91.73
4085;BME280;2057;50.858;6.572;2023-04-06T03:03:43;100474.03;;;1.59;91.42
4085;BME280;2057;50.858;6.572;2023-04-06T03:06:08;100469.94;;;1.30;91.19
4085;BME280;2057;50.858;6.572;2023-04-06T03:08:35;100468.50;;;1.52;92.14
4085;BME280;2057;50.858;6.572;2023-04-06T03:11:00;100469.34;;;1.43;91.21
4085;BME280;2057;50.858;6.572;2023-04-06T03:13:26;100477.88;;;1.45;91.08
4085;BME280;2057;50.858;6.572;2023-04-06T03:15:51;100473.00;;;1.46;91.39
4085;BME280;2057;50.858;6.572;2023-04-06T03:18:21;100466.91;;;1.53;91.45
4085;BME280;2057;50.858;6.572;2023-04-06T03:20:47;100471.88;;;1.43;92.03
4085;BME280;2057;50.858;6.572;2023-04-06T03:23:12;100472.72;;;1.33;91.61
4085;BME280;2057;50.858;6.572;2023-04-06T03:25:38;100472.72;;;1.33;91.83
4085;BME280;2057;50.858;6.572;2023-04-06T03:28:05;100472.31;;;1.28;91.00
4085;BME280;2057;50.858;6.572;2023-04-06T03:30:30;100472.72;;;1.33;92.27
4085;BME280;2057;50.858;6.572;2023-04-06T03:32:55;100477.31;;;1.28;92.80
4085;BME280;2057;50.858;6.572;2023-04-06T03:35:21;100463.84;;;1.36;92.20
4085;BME280;2057;50.858;6.572;2023-04-06T03:37:46;100466.19;;;1.24;92.20
4085;BME280;2057;50.858;6.572;2023-04-06T03:40:11;100463.09;;;1.37;92.61
4085;BME280;2057;50.858;6.572;2023-04-06T03:42:39;100461.53;;;1.19;91.27
4085;BME280;2057;50.858;6.572;2023-04-06T03:45:05;100465.22;;;1.14;93.74
4085;BME280;2057;50.858;6.572;2023-04-06T03:47:31;100470.06;;;1.02;92.48
4085;BME280;2057;50.858;6.572;2023-04-06T03:49:56;100466.06;;;1.04;93.04
4085;BME280;2057;50.858;6.572;2023-04-06T03:52:21;100463.06;;;0.98;94.00
4085;BME280;2057;50.858;6.572;2023-04-06T03:54:48;100464.84;;;1.09;93.85
4085;BME280;2057;50.858;6.572;2023-04-06T03:57:13;100453.91;;;1.28;92.87
4085;BME280;2057;50.858;6.572;2023-04-06T03:59:39;100464.03;;;1.19;92.95
4085;BME280;2057;50.858;6.572;2023-04-06T04:02:05;100454.31;;;1.32;92.91
4085;BME280;2057;50.858;6.572;2023-04-06T04:04:30;100463.34;;;1.11;91.55
4085;BME280;2057;50.858;6.572;2023-04-06T04:06:56;100461.66;;;1.20;92.47
4085;BME280;2057;50.858;6.572;2023-04-06T04:09:21;100461.91;;;1.23;92.22
4085;BME280;2057;50.858;6.572;2023-04-06T04:11:46;100463.22;;;1.09;92.87
4085;BME280;2057;50.858;6.572;2023-04-06T04:14:12;100461.66;;;1.20;93.23
4085;BME280;2057;50.858;6.572;2023-04-06T04:16:37;100462.38;;;1.19;92.95
4085;BME280;2057;50.858;6.572;2023-04-06T04:19:04;100470.22;;;1.14;92.60
4085;BME280;2057;50.858;6.572;2023-04-06T04:21:31;100470.28;;;0.94;92.66
4085;BME280;2057;50.858;6.572;2023-04-06T04:23:56;100468.09;;;1.08;94.53
4085;BME280;2057;50.858;6.572;2023-04-06T04:26:22;100470.38;;;1.15;93.81
4085;BME280;2057;50.858;6.572;2023-04-06T04:28:47;100472.03;;;0.96;93.35
4085;BME280;2057;50.858;6.572;2023-04-06T04:31:12;100465.75;;;0.71;95.24
4085;BME280;2057;50.858;6.572;2023-04-06T04:33:38;100466.38;;;0.69;94.28
4085;BME280;2057;50.858;6.572;2023-04-06T04:36:03;100464.75;;;0.88;95.44
4085;BME280;2057;50.858;6.572;2023-04-06T04:38:29;100460.84;;;1.11;94.57
4085;BME280;2057;50.858;6.572;2023-04-06T04:40:55;100458.34;;;1.40;92.90
4085;BME280;2057;50.858;6.572;2023-04-06T04:43:20;100463.44;;;1.32;93.02
4085;BME280;2057;50.858;6.572;2023-04-06T04:45:46;100457.94;;;1.25;92.68
4085;BME280;2057;50.858;6.572;2023-04-06T04:48:11;100457.88;;;1.15;92.88
4085;BME280;2057;50.858;6.572;2023-04-06T04:50:37;100459.25;;;1.12;93.09
4085;BME280;2057;50.858;6.572;2023-04-06T04:53:02;100453.19;;;1.29;92.41
4085;BME280;2057;50.858;6.572;2023-04-06T04:55:30;100458.34;;;1.11;92.60
4085;BME280;2057;50.858;6.572;2023-04-06T04:57:56;100453.28;;;1.20;93.75
4085;BME280;2057;50.858;6.572;2023-04-06T05:00:21;100461.91;;;1.23;93.93
4085;BME280;2057;50.858;6.572;2023-04-06T05:02:46;100458.28;;;1.30;93.53
4085;BME280;2057;50.858;6.572;2023-04-06T05:05:12;100461.00;;;1.42;92.66
4085;BME280;2057;50.858;6.572;2023-04-06T05:07:37;100460.22;;;1.43;92.50
4085;BME280;2057;50.858;6.572;2023-04-06T05:10:03;100465.50;;;1.17;92.17
4085;BME280;2057;50.858;6.572;2023-04-06T05:12:28;100474.66;;;1.16;93.40
4085;BME280;2057;50.858;6.572;2023-04-06T05:14:54;100473.41;;;1.21;93.83
4085;BME280;2057;50.858;6.572;2023-04-06T05:17:20;100458.56;;;1.33;93.21
4085;BME280;2057;50.858;6.572;2023-04-06T05:19:45;100459.28;;;1.51;93.22
4085;BME280;2057;50.858;6.572;2023-04-06T05:22:11;100461.25;;;1.55;92.82
4085;BME280;2057;50.858;6.572;2023-04-06T05:24:39;100461.16;;;1.54;92.84
4085;BME280;2057;50.858;6.572;2023-04-06T05:27:05;100457.50;;;1.61;92.26
4085;BME280;2057;50.858;6.572;2023-04-06T05:29:30;100462.28;;;1.58;92.89
4085;BME280;2057;50.858;6.572;2023-04-06T05:31:56;100456.78;;;1.62;93.34
4085;BME280;2057;50.858;6.572;2023-04-06T05:34:21;100461.94;;;1.63;91.79
4085;BME280;2057;50.858;6.572;2023-04-06T05:36:47;100461.53;;;1.59;92.39
4085;BME280;2057;50.858;6.572;2023-04-06T05:39:12;100465.44;;;1.76;92.81
4085;BME280;2057;50.858;6.572;2023-04-06T05:41:38;100463.84;;;1.76;91.41
4085;BME280;2057;50.858;6.572;2023-04-06T05:44:03;100454.81;;;1.78;91.80
4085;BME280;2057;50.858;6.572;2023-04-06T05:46:31;100460.31;;;1.74;92.74
4085;BME280;2057;50.858;6.572;2023-04-06T05:48:56;100458.09;;;1.98;91.94
4085;BME280;2057;50.858;6.572;2023-04-06T05:51:22;100450.84;;;2.01;91.18
4085;BME280;2057;50.858;6.572;2023-04-06T05:53:47;100460.75;;;1.99;91.12
4085;BME280;2057;50.858;6.572;2023-04-06T05:56:13;100452.84;;;2.05;90.34
4085;BME280;2057;50.858;6.572;2023-04-06T05:58:41;100456.84;;;2.13;90.63
4085;BME280;2057;50.858;6.572;2023-04-06T06:01:06;100455.84;;;2.32;91.29
4085;BME280;2057;50.858;6.572;2023-04-06T06:03:32;100450.72;;;2.51;91.78
4085;BME280;2057;50.858;6.572;2023-04-06T06:06:01;100450.19;;;2.65;91.55
4085;BME280;2057;50.858;6.572;2023-04-06T06:08:28;100459.56;;;2.68;91.55
4085;BME280;2057;50.858;6.572;2023-04-06T06:10:53;100455.56;;;2.70;90.77
4085;BME280;2057;50.858;6.572;2023-04-06T06:13:19;100452.00;;;2.89;91.38
4085;BME280;2057;50.858;6.572;2023-04-06T06:15:44;100446.84;;;2.97;90.26
4085;BME280;2057;50.858;6.572;2023-04-06T06:18:10;100452.00;;;2.99;91.41
4085;BME280;2057;50.858;6.572;2023-04-06T06:20:35;100443.78;;;3.12;91.61
4085;BME280;2057;50.858;6.572;2023-04-06T06:23:00;100449.34;;;3.30;91.06
4085;BME280;2057;50.858;6.572;2023-04-06T06:27:55;100452.28;;;3.47;90.38
4085;BME280;2057;50.858;6.572;2023-04-06T06:30:20;100450.31;;;3.42;89.98
4085;BME280;2057;50.858;6.572;2023-04-06T06:32:46;100447.38;;;3.48;90.92
4085;BME280;2057;50.858;6.572;2023-04-06T06:35:11;100450.94;;;3.62;91.75
4085;BME280;2057;50.858;6.572;2023-04-06T06:37:37;100455.91;;;3.72;91.65
4085;BME280;2057;50.858;6.572;2023-04-06T06:40:02;100461.28;;;3.77;91.90
4085;BME280;2057;50.858;6.572;2023-04-06T06:42:27;100455.72;;;3.81;92.44
4085;BME280;2057;50.858;6.572;2023-04-06T06:44:54;100449.81;;;3.81;93.27
4085;BME280;2057;50.858;6.572;2023-04-06T06:47:19;100461.41;;;3.90;93.82
4085;BME280;2057;50.858;6.572;2023-04-06T06:49:44;100456.97;;;3.98;93.11
4085;BME280;2057;50.858;6.572;2023-04-06T06:52:10;100450.50;;;3.90;93.25
4085;BME280;2057;50.858;6.572;2023-04-06T06:54:35;100456.81;;;4.07;92.62
4085;BME280;2057;50.858;6.572;2023-04-06T06:57:01;100451.06;;;4.20;92.71
4085;BME280;2057;50.858;6.572;2023-04-06T06:59:26;100444.63;;;4.35;92.05
4085;BME280;2057;50.858;6.572;2023-04-06T07:01:52;100444.41;;;4.44;92.09
4085;BME280;2057;50.858;6.572;2023-04-06T07:04:17;100453.53;;;4.54;91.33
4085;BME280;2057;50.858;6.572;2023-04-06T07:06:42;100446.09;;;4.55;90.60
4085;BME280;2057;50.858;6.572;2023-04-06T07:09:08;100446.09;;;4.55;90.72
4085;BME280;2057;50.858;6.572;2023-04-06T07:11:33;100440.81;;;4.64;91.74
4085;BME280;2057;50.858;6.572;2023-04-06T07:13:59;100448.16;;;4.73;92.51
4085;BME280;2057;50.858;6.572;2023-04-06T07:16:24;100438.19;;;4.86;92.88
4085;BME280;2057;50.858;6.572;2023-04-06T07:18:50;100438.66;;;4.81;92.32
4085;BME280;2057;50.858;6.572;2023-04-06T07:21:16;100432.72;;;5.04;90.53
4085;BME280;2057;50.858;6.572;2023-04-06T07:23:41;100429.31;;;5.15;90.60
4085;BME280;2057;50.858;6.572;2023-04-06T07:26:06;100424.25;;;5.27;91.62
4085;BME280;2057;50.858;6.572;2023-04-06T07:28:32;100434.25;;;5.51;92.00
4085;BME280;2057;50.858;6.572;2023-04-06T07:30:57;100429.31;;;5.64;91.85
4085;BME280;2057;50.858;6.572;2023-04-06T07:33:22;100425.28;;;5.80;91.86
4085;BME280;2057;50.858;6.572;2023-04-06T07:35:48;100436.00;;;5.89;91.59
4085;BME280;2057;50.858;6.572;2023-04-06T07:38:13;100427.72;;;6.04;91.17
4085;BME280;2057;50.858;6.572;2023-04-06T07:40:39;100428.16;;;6.23;90.41
4085;BME280;2057;50.858;6.572;2023-04-06T07:43:04;100432.44;;;6.38;88.98
4085;BME280;2057;50.858;6.572;2023-04-06T07:45:30;100424.91;;;6.51;88.12
4085;BME280;2057;50.858;6.572;2023-04-06T07:47:55;100424.75;;;6.62;86.56
4085;BME280;2057;50.858;6.572;2023-04-06T07:50:21;100423.75;;;6.73;84.44
4085;BME280;2057;50.858;6.572;2023-04-06T07:52:46;100422.78;;;6.84;83.89
4085;BME280;2057;50.858;6.572;2023-04-06T07:55:12;100426.38;;;7.01;82.98
4085;BME280;2057;50.858;6.572;2023-04-06T07:57:37;100424.03;;;7.04;82.12
4085;BME280;2057;50.858;6.572;2023-04-06T08:00:03;100426.06;;;7.10;81.50
4085;BME280;2057;50.858;6.572;2023-04-06T08:02:30;100426.84;;;7.22;81.55
4085;BME280;2057;50.858;6.572;2023-04-06T08:04:56;100422.56;;;7.21;81.60
4085;BME280;2057;50.858;6.572;2023-04-06T08:07:21;100420.97;;;7.37;81.08
4085;BME280;2057;50.858;6.572;2023-04-06T08:09:47;100427.72;;;7.51;81.20
4085;BME280;2057;50.858;6.572;2023-04-06T08:12:12;100422.00;;;7.54;80.90
4085;BME280;2057;50.858;6.572;2023-04-06T08:14:37;100419.31;;;7.66;80.58
4085;BME280;2057;50.858;6.572;2023-04-06T08:17:03;100418.00;;;7.73;81.53
4085;BME280;2057;50.858;6.572;2023-04-06T08:19:28;100421.34;;;7.87;80.99
4085;BME280;2057;50.858;6.572;2023-04-06T08:21:54;100419.13;;;8.06;80.05
4085;BME280;2057;50.858;6.572;2023-04-06T08:24:19;100414.06;;;8.21;81.12
4085;BME280;2057;50.858;6.572;2023-04-06T08:26:45;100413.19;;;8.21;78.85
4085;BME280;2057;50.858;6.572;2023-04-06T08:29:10;100411.63;;;8.23;79.15
4085;BME280;2057;50.858;6.572;2023-04-06T08:31:36;100415.53;;;8.32;79.87
4085;BME280;2057;50.858;6.572;2023-04-06T08:34:04;100403.16;;;8.37;79.26
4085;BME280;2057;50.858;6.572;2023-04-06T08:36:30;100412.53;;;8.53;79.81
4085;BME280;2057;50.858;6.572;2023-04-06T08:38:56;100413.22;;;8.51;78.15
4085;BME280;2057;50.858;6.572;2023-04-06T08:41:21;100410.63;;;8.49;78.03
4085;BME280;2057;50.858;6.572;2023-04-06T08:43:48;100412.06;;;8.60;78.23
4085;BME280;2057;50.858;6.572;2023-04-06T08:46:14;100402.56;;;8.71;78.71
4085;BME280;2057;50.858;6.572;2023-04-06T08:48:41;100400.22;;;8.91;77.40
4085;BME280;2057;50.858;6.572;2023-04-06T08:51:11;100402.75;;;8.91;76.09
4085;BME280;2057;50.858;6.572;2023-04-06T08:53:37;100408.59;;;8.90;75.81
4085;BME280;2057;50.858;6.572;2023-04-06T08:56:03;100399.22;;;9.04;76.25
4085;BME280;2057;50.858;6.572;2023-04-06T08:58:34;100406.47;;;9.13;76.31
4085;BME280;2057;50.858;6.572;2023-04-06T09:01:02;100400.44;;;9.27;76.78
4085;BME280;2057;50.858;6.572;2023-04-06T09:03:31;100403.31;;;9.33;76.42
4085;BME280;2057;50.858;6.572;2023-04-06T09:05:58;100400.88;;;9.51;75.04
4085;BME280;2057;50.858;6.572;2023-04-06T09:08:24;100400.88;;;9.51;73.09
4085;BME280;2057;50.858;6.572;2023-04-06T09:10:50;100399.06;;;9.65;72.60
4085;BME280;2057;50.858;6.572;2023-04-06T09:13:17;100399.81;;;9.81;69.42
4085;BME280;2057;50.858;6.572;2023-04-06T09:15:42;100409.31;;;9.85;67.00
4085;BME280;2057;50.858;6.572;2023-04-06T09:18:07;100405.66;;;9.96;64.85
4085;BME280;2057;50.858;6.572;2023-04-06T09:20:33;100399.38;;;10.06;65.31
4085;BME280;2057;50.858;6.572;2023-04-06T09:22:59;100400.06;;;10.20;65.97
4085;BME280;2057;50.858;6.572;2023-04-06T09:25:25;100400.78;;;10.17;63.60
4085;BME280;2057;50.858;6.572;2023-04-06T09:28:01;100406.00;;;10.20;63.21
4085;BME280;2057;50.858;6.572;2023-04-06T09:30:27;100403.53;;;10.22;63.35
4085;BME280;2057;50.858;6.572;2023-04-06T09:32:55;100400.81;;;10.35;64.19
4085;BME280;2057;50.858;6.572;2023-04-06T09:35:22;100405.25;;;10.40;62.45
4085;BME280;2057;50.858;6.572;2023-04-06T09:37:48;100400.91;;;10.55;63.02
4085;BME280;2057;50.858;6.572;2023-04-06T09:40:16;100397.47;;;10.53;62.54
4085;BME280;2057;50.858;6.572;2023-04-06T09:42:47;100393.75;;;10.64;63.23
4085;BME280;2057;50.858;6.572;2023-04-06T09:45:13;100395.03;;;10.56;60.84
4085;BME280;2057;50.858;6.572;2023-04-06T09:47:40;100394.06;;;10.71;62.43
4085;BME280;2057;50.858;6.572;2023-04-06T09:50:09;100388.66;;;10.64;61.49
4085;BME280;2057;50.858;6.572;2023-04-06T09:52:56;100395.97;;;10.94;61.67
4085;BME280;2057;50.858;6.572;2023-04-06T09:55:30;100392.97;;;11.03;60.54
4085;BME280;2057;50.858;6.572;2023-04-06T09:58:04;100392.13;;;10.85;59.09
4085;BME280;2057;50.858;6.572;2023-04-06T10:00:51;100393.00;;;10.85;59.94
4085;BME280;2057;50.858;6.572;2023-04-06T10:03:37;100389.31;;;10.96;61.07
4085;BME280;2057;50.858;6.572;2023-04-06T10:06:10;100389.88;;;10.91;58.01
4085;BME280;2057;50.858;6.572;2023-04-06T10:08:38;100389.78;;;10.89;59.28
4085;BME280;2057;50.858;6.572;2023-04-06T10:11:08;100396.63;;;10.90;60.37
4085;BME280;2057;50.858;6.572;2023-04-06T10:13:34;100394.88;;;11.07;60.01
4085;BME280;2057;50.858;6.572;2023-04-06T10:16:00;100387.88;;;11.03;60.31
4085;BME280;2057;50.858;6.572;2023-04-06T10:18:29;100391.22;;;11.20;60.48
4085;BME280;2057;50.858;6.572;2023-04-06T10:20:59;100391.31;;;11.23;59.74
4085;BME280;2057;50.858;6.572;2023-04-06T10:23:45;100403.22;;;11.24;60.01
4085;BME280;2057;50.858;6.572;2023-04-06T10:26:19;100393.81;;;11.41;59.57
4085;BME280;2057;50.858;6.572;2023-04-06T10:28:46;100398.34;;;11.29;58.61
4085;BME280;2057;50.858;6.572;2023-04-06T10:31:12;100401.41;;;11.40;58.60
4085;BME280;2057;50.858;6.572;2023-04-06T10:33:38;100407.06;;;11.34;57.28
4085;BME280;2057;50.858;6.572;2023-04-06T10:36:33;100403.66;;;11.34;53.71
4085;BME280;2057;50.858;6.572;2023-04-06T10:39:00;100398.53;;;11.52;54.06
4085;BME280;2057;50.858;6.572;2023-04-06T10:41:44;100402.72;;;11.51;53.71
4085;BME280;2057;50.858;6.572;2023-04-06T10:44:22;100406.34;;;11.56;53.48
4085;BME280;2057;50.858;6.572;2023-04-06T10:46:59;100393.63;;;11.56;54.21
4085;BME280;2057;50.858;6.572;2023-04-06T10:49:28;100401.38;;;11.59;54.42
4085;BME280;2057;50.858;6.572;2023-04-06T10:51:55;100402.31;;;11.81;54.01
4085;BME280;2057;50.858;6.572;2023-04-06T10:54:21;100398.81;;;11.79;53.85
4085;BME280;2057;50.858;6.572;2023-04-06T10:56:48;100398.94;;;12.02;53.56
4085;BME280;2057;50.858;6.572;2023-04-06T10:59:19;100390.13;;;12.15;53.28
4085;BME280;2057;50.858;6.572;2023-04-06T11:01:45;100395.25;;;11.95;52.55
4085;BME280;2057;50.858;6.572;2023-04-06T11:04:16;100393.53;;;11.94;53.14
4085;BME280;2057;50.858;6.572;2023-04-06T11:06:46;100389.19;;;11.91;54.21
4085;BME280;2057;50.858;6.572;2023-04-06T11:09:23;100389.72;;;12.25;53.43
4085;BME280;2057;50.858;6.572;2023-04-06T11:11:50;100391.59;;;12.08;54.51
4085;BME280;2057;50.858;6.572;2023-04-06T11:14:15;100387.97;;;12.03;54.70
4085;BME280;2057;50.858;6.572;2023-04-06T11:16:41;100387.72;;;12.18;55.85
4085;BME280;2057;50.858;6.572;2023-04-06T11:19:06;100390.13;;;12.15;55.02
4085;BME280;2057;50.858;6.572;2023-04-06T11:21:42;100392.25;;;12.25;54.67
4085;BME280;2057;50.858;6.572;2023-04-06T11:24:10;100394.47;;;11.96;55.69
4085;BME280;2057;50.858;6.572;2023-04-06T11:26:40;100386.34;;;12.05;55.97
4085;BME280;2057;50.858;6.572;2023-04-06T11:29:06;100381.84;;;12.19;56.67
4085;BME280;2057;50.858;6.572;2023-04-06T11:31:38;100392.00;;;11.98;54.98
4085;BME280;2057;50.858;6.572;2023-04-06T11:34:09;100382.88;;;12.03;59.32
4085;BME280;2057;50.858;6.572;2023-04-06T11:36:35;100385.69;;;11.89;58.44
4085;BME280;2057;50.858;6.572;2023-04-06T11:39:03;100380.06;;;11.77;56.88
4085;BME280;2057;50.858;6.572;2023-04-06T11:41:28;100380.41;;;11.85;58.31
4085;BME280;2057;50.858;6.572;2023-04-06T11:43:55;100379.63;;;11.86;58.29
4085;BME280;2057;50.858;6.572;2023-04-06T11:46:21;100379.66;;;11.87;57.65
4085;BME280;2057;50.858;6.572;2023-04-06T11:48:46;100374.56;;;11.87;57.31
4085;BME280;2057;50.858;6.572;2023-04-06T11:51:14;100371.53;;;12.16;57.95
4085;BME280;2057;50.858;6.572;2023-04-06T11:53:46;100389.66;;;11.83;58.83
4085;BME280;2057;50.858;6.572;2023-04-06T11:56:26;100386.66;;;11.72;60.06
4085;BME280;2057;50.858;6.572;2023-04-06T11:58:53;100384.22;;;11.75;59.92
4085;BME280;2057;50.858;6.572;2023-04-06T12:01:19;100379.81;;;11.90;62.37
4085;BME280;2057;50.858;6.572;2023-04-06T12:03:45;100383.97;;;11.88;63.36
4085;BME280;2057;50.858;6.572;2023-04-06T12:06:10;100378.72;;;11.85;62.95
4085;BME280;2057;50.858;6.572;2023-04-06T12:08:36;100381.28;;;11.85;64.64
4085;BME280;2057;50.858;6.572;2023-04-06T12:11:01;100374.34;;;11.81;62.21
4085;BME280;2057;50.858;6.572;2023-04-06T12:13:27;100376.97;;;11.84;63.68
4085;BME280;2057;50.858;6.572;2023-04-06T12:15:53;100381.53;;;11.51;60.63
4085;BME280;2057;50.858;6.572;2023-04-06T12:18:18;100375.16;;;11.41;62.03
4085;BME280;2057;50.858;6.572;2023-04-06T12:20:43;100377.97;;;11.27;60.38
4085;BME280;2057;50.858;6.572;2023-04-06T12:23:09;100387.97;;;11.24;64.14
4085;BME280;2057;50.858;6.572;2023-04-06T12:25:34;100376.06;;;11.23;62.33
4085;BME280;2057;50.858;6.572;2023-04-06T12:28:00;100377.13;;;11.09;61.18
4085;BME280;2057;50.858;6.572;2023-04-06T12:30:26;100380.16;;;11.00;62.27
4085;BME280;2057;50.858;6.572;2023-04-06T12:32:51;100381.53;;;10.93;66.11
4085;BME280;2057;50.858;6.572;2023-04-06T12:37:54;100381.00;;;11.01;69.64
4085;BME280;2057;50.858;6.572;2023-04-06T12:40:20;100386.16;;;11.02;70.41
4085;BME280;2057;50.858;6.572;2023-04-06T12:42:46;100388.16;;;10.90;67.68
4085;BME280;2057;50.858;6.572;2023-04-06T12:45:12;100389.31;;;10.96;69.95
4085;BME280;2057;50.858;6.572;2023-04-06T12:47:37;100387.56;;;10.77;67.02
4085;BME280;2057;50.858;6.572;2023-04-06T12:50:06;100378.72;;;10.87;70.21
4085;BME280;2057;50.858;6.572;2023-04-06T12:52:31;100381.31;;;10.89;69.68
4085;BME280;2057;50.858;6.572;2023-04-06T12:55:00;100382.06;;;10.86;70.72
4085;BME280;2057;50.858;6.572;2023-04-06T12:57:26;100385.56;;;11.08;69.19
4085;BME280;2057;50.858;6.572;2023-04-06T12:59:51;100376.31;;;10.90;70.56
4085;BME280;2057;50.858;6.572;2023-04-06T13:02:17;100381.75;;;10.80;70.35
4085;BME280;2057;50.858;6.572;2023-04-06T13:04:45;100385.81;;;10.76;69.85
4085;BME280;2057;50.858;6.572;2023-04-06T13:07:10;100376.34;;;10.72;72.45
4085;BME280;2057;50.858;6.572;2023-04-06T13:09:35;100383.66;;;10.84;74.92
4085;BME280;2057;50.858;6.572;2023-04-06T13:12:01;100375.66;;;10.76;74.83
4085;BME280;2057;50.858;6.572;2023-04-06T13:14:26;100378.81;;;10.52;74.99
4085;BME280;2057;50.858;6.572;2023-04-06T13:16:52;100371.56;;;10.60;77.42
4085;BME280;2057;50.858;6.572;2023-04-06T13:19:17;100376.19;;;10.51;75.27